Time;durP1;ratioP1;P1;durP2;ratioP2;P2;SDS_P1;SDS_P2;PMS_P1;PMS_P2;Temp;Humidity;BMP_temperature;BMP_pressure;BME280_temperature;BME280_humidity;BME280_pressure;Samples;Min_cycle;Max_cycle;Signal;HPM_P1;HPM_P2
2022/11/07 00:02:12;;;;;;;;;;;8.40;87.30;;;;;;5055663;28;20035;-86
2022/11/07 00:04:37;;;;;;;;;;;8.40;87.10;;;;;;5055617;28;20451;-86
2022/11/07 00:07:03;;;;;;;;;;;8.40;86.50;;;;;;5055564;28;19940;-86
2022/11/07 00:09:29;;;;;;;;;;;8.30;85.70;;;;;;5055508;28;19942;-86
2022/11/07 00:11:55;;;;;;;;;;;8.30;85.60;;;;;;5055497;28;19942;-86
2022/11/07 00:14:21;;;;;;;;;;;8.40;86.30;;;;;;5055483;28;20388;-86
2022/11/07 00:16:47;;;;;;;;;;;8.50;87.20;;;;;;5037523;28;19942;-87
2022/11/07 00:19:13;;;;;;;;;;;8.50;87.30;;;;;;5055358;28;19946;-86
2022/11/07 00:21:39;;;;;;;;;;;8.40;85.50;;;;;;5055217;28;20061;-86
2022/11/07 00:24:06;;;;;;;;;;;8.10;85.90;;;;;;5037387;28;19989;-86
2022/11/07 00:26:31;;;;;;;;;;;7.90;86.10;;;;;;5055483;28;20058;-86
2022/11/07 00:28:57;;;;;;;;;;;7.90;86.60;;;;;;5055155;28;20438;-86
2022/11/07 00:31:22;;;;;;;;;;;7.90;86.90;;;;;;5054949;28;20328;-86
2022/11/07 00:33:48;;;;;;;;;;;7.90;87.00;;;;;;5055081;28;20394;-86
2022/11/07 00:36:18;;;;;;;;;;;8.00;87.30;;;;;;5055043;28;20536;-86
2022/11/07 00:38:43;;;;;;;;;;;8.10;87.50;;;;;;5054947;28;20367;-86
2022/11/07 00:41:09;;;;;;;;;;;8.20;87.50;;;;;;5054898;28;19964;-87
2022/11/07 00:43:34;;;;;;;;;;;8.30;87.40;;;;;;5037020;28;20582;-86
2022/11/07 00:46:01;;;;;;;;;;;8.40;87.20;;;;;;5054839;28;20443;-86
2022/11/07 00:48:27;;;;;;;;;;;8.40;86.80;;;;;;5054843;28;19942;-86
2022/11/07 00:50:52;;;;;;;;;;;8.50;86.80;;;;;;5054732;28;19943;-86
2022/11/07 00:53:18;;;;;;;;;;;8.50;86.70;;;;;;5054768;28;19945;-86
2022/11/07 00:55:44;;;;;;;;;;;8.40;86.50;;;;;;5054608;28;20009;-86
2022/11/07 00:58:09;;;;;;;;;;;8.40;86.40;;;;;;5054585;28;19939;-86
2022/11/07 01:00:35;;;;;;;;;;;8.40;86.60;;;;;;5054442;28;19968;-86
2022/11/07 01:05:55;;;;;;;;;;;8.40;87.00;;;;;;5054398;28;19990;-86
2022/11/07 01:08:21;;;;;;;;;;;8.30;87.20;;;;;;5054350;28;20409;-86
2022/11/07 01:10:46;;;;;;;;;;;8.30;87.50;;;;;;5054592;28;20031;-87
2022/11/07 01:13:12;;;;;;;;;;;8.40;87.70;;;;;;5054256;28;20337;-86
2022/11/07 01:15:39;;;;;;;;;;;8.40;87.50;;;;;;5054177;28;20311;-86
2022/11/07 01:18:04;;;;;;;;;;;8.40;87.40;;;;;;5054219;28;19944;-87
2022/11/07 01:20:30;;;;;;;;;;;8.50;87.10;;;;;;5054073;28;19959;-86
2022/11/07 01:22:55;;;;;;;;;;;8.50;86.90;;;;;;5054401;28;20308;-86
2022/11/07 01:25:21;;;;;;;;;;;8.40;86.90;;;;;;5054079;28;20353;-86
2022/11/07 01:27:46;;;;;;;;;;;8.30;87.30;;;;;;5054020;28;20282;-86
2022/11/07 01:30:12;;;;;;;;;;;8.30;87.00;;;;;;5053733;28;20377;-86
2022/11/07 01:32:37;;;;;;;;;;;8.20;87.10;;;;;;5053958;28;20355;-86
2022/11/07 01:35:03;;;;;;;;;;;8.10;87.50;;;;;;5053949;28;19942;-86
2022/11/07 01:37:29;;;;;;;;;;;8.10;87.80;;;;;;5053954;28;19936;-86
2022/11/07 01:39:54;;;;;;;;;;;8.20;87.70;;;;;;5053794;28;19970;-86
2022/11/07 01:42:20;;;;;;;;;;;8.20;87.80;;;;;;5053845;28;19935;-87
2022/11/07 01:44:54;;;;;;;;;;;8.20;88.00;;;;;;5053712;28;20315;-86
2022/11/07 01:47:20;;;;;;;;;;;8.20;88.10;;;;;;5053766;28;19958;-86
2022/11/07 01:49:46;;;;;;;;;;;8.10;88.30;;;;;;5053685;28;19983;-87
2022/11/07 01:52:20;;;;;;;;;;;8.10;88.70;;;;;;5053424;28;19958;-87
2022/11/07 01:54:51;;;;;;;;;;;8.00;88.30;;;;;;5053576;28;19941;-86
2022/11/07 01:57:22;;;;;;;;;;;7.90;87.40;;;;;;5053502;28;19999;-86
2022/11/07 01:59:50;;;;;;;;;;;7.90;88.00;;;;;;5053401;28;19955;-86
2022/11/07 02:02:15;;;;;;;;;;;8.10;88.40;;;;;;5053694;28;19942;-86
2022/11/07 02:04:41;;;;;;;;;;;8.10;87.40;;;;;;5053721;28;20301;-86
2022/11/07 02:07:20;;;;;;;;;;;8.00;87.10;;;;;;5052952;28;20404;-87
2022/11/07 02:09:45;;;;;;;;;;;7.90;87.40;;;;;;5053289;28;20409;-87
2022/11/07 02:12:11;;;;;;;;;;;7.80;88.00;;;;;;5053291;28;19939;-86
2022/11/07 02:14:37;;;;;;;;;;;7.80;88.50;;;;;;5053320;28;20427;-86
2022/11/07 02:17:03;;;;;;;;;;;7.80;88.50;;;;;;5053265;28;19939;-86
2022/11/07 02:19:40;;;;;;;;;;;7.70;88.60;;;;;;5053215;28;20458;-87
2022/11/07 02:22:11;;;;;;;;;;;7.70;89.00;;;;;;5053140;28;19965;-86
2022/11/07 02:24:38;;;;;;;;;;;7.70;89.10;;;;;;5053125;28;19950;-86
2022/11/07 02:27:06;;;;;;;;;;;7.60;89.00;;;;;;5053400;28;19947;-86
2022/11/07 02:29:32;;;;;;;;;;;7.60;89.10;;;;;;5052846;28;19969;-86
2022/11/07 02:32:03;;;;;;;;;;;7.50;89.60;;;;;;5053049;28;20286;-87
2022/11/07 02:34:28;;;;;;;;;;;7.50;90.10;;;;;;5053031;28;19947;-86
2022/11/07 02:36:54;;;;;;;;;;;7.50;90.40;;;;;;5053244;28;19948;-86
2022/11/07 02:39:20;;;;;;;;;;;7.60;90.00;;;;;;5052949;28;19941;-86
2022/11/07 02:41:46;;;;;;;;;;;7.50;90.00;;;;;;5052930;28;20320;-86
2022/11/07 02:44:11;;;;;;;;;;;7.70;90.10;;;;;;5052866;28;20474;-86
2022/11/07 02:46:38;;;;;;;;;;;7.70;89.90;;;;;;5052902;28;19942;-86
2022/11/07 02:49:04;;;;;;;;;;;7.70;88.80;;;;;;5052868;28;19942;-86
2022/11/07 02:51:29;;;;;;;;;;;7.70;88.80;;;;;;5052780;28;20010;-86
2022/11/07 02:53:55;;;;;;;;;;;7.70;88.20;;;;;;5053062;28;19948;-86
2022/11/07 02:56:20;;;;;;;;;;;7.60;87.80;;;;;;5052826;28;20399;-86
2022/11/07 02:58:46;;;;;;;;;;;7.60;87.20;;;;;;5052787;28;20305;-86
2022/11/07 03:01:11;;;;;;;;;;;7.50;87.40;;;;;;5052762;28;20442;-86
2022/11/07 03:03:38;;;;;;;;;;;7.50;87.30;;;;;;5052780;28;20419;-86
2022/11/07 03:06:05;;;;;;;;;;;7.40;88.00;;;;;;5052716;28;19945;-86
2022/11/07 03:08:30;;;;;;;;;;;7.30;88.60;;;;;;5052719;28;20387;-86
2022/11/07 03:10:56;;;;;;;;;;;7.20;89.10;;;;;;5052714;28;19946;-86
2022/11/07 03:13:22;;;;;;;;;;;7.20;89.80;;;;;;5052644;28;19978;-86
2022/11/07 03:15:48;;;;;;;;;;;7.30;89.50;;;;;;5034769;28;20046;-86
2022/11/07 03:18:13;;;;;;;;;;;7.30;89.00;;;;;;5054171;28;19942;-86
2022/11/07 03:20:39;;;;;;;;;;;7.30;88.80;;;;;;5056375;28;19956;-86
2022/11/07 03:23:04;;;;;;;;;;;7.20;88.60;;;;;;5056613;28;19945;-86
2022/11/07 03:25:30;;;;;;;;;;;7.10;88.60;;;;;;5056384;28;19941;-86
2022/11/07 03:27:55;;;;;;;;;;;7.10;89.10;;;;;;5056381;28;19938;-86
2022/11/07 03:30:21;;;;;;;;;;;7.10;89.00;;;;;;5056208;28;19980;-86
2022/11/07 03:32:46;;;;;;;;;;;7.10;89.00;;;;;;5056204;28;19941;-86
2022/11/07 03:35:12;;;;;;;;;;;7.20;88.40;;;;;;5056177;28;19938;-86
2022/11/07 03:37:38;;;;;;;;;;;7.20;88.40;;;;;;5056166;28;19943;-86
2022/11/07 03:40:03;;;;;;;;;;;7.30;88.30;;;;;;5056060;28;20410;-86
2022/11/07 03:42:29;;;;;;;;;;;7.30;88.40;;;;;;5056081;28;20450;-86
2022/11/07 03:44:54;;;;;;;;;;;7.30;87.80;;;;;;5055763;28;19946;-86
2022/11/07 03:47:20;;;;;;;;;;;7.30;87.50;;;;;;5055400;28;19940;-86
2022/11/07 03:49:45;;;;;;;;;;;7.20;87.50;;;;;;5055648;28;19940;-86
2022/11/07 03:52:11;;;;;;;;;;;7.20;87.70;;;;;;5055666;28;19953;-86
2022/11/07 03:54:36;;;;;;;;;;;7.30;87.40;;;;;;5055832;28;19941;-86
2022/11/07 03:57:02;;;;;;;;;;;7.20;86.80;;;;;;5056009;28;19945;-86
2022/11/07 03:59:27;;;;;;;;;;;7.10;85.90;;;;;;5055604;28;20333;-86
2022/11/07 04:01:53;;;;;;;;;;;6.90;85.20;;;;;;5055594;28;20046;-86
2022/11/07 04:04:19;;;;;;;;;;;6.90;84.90;;;;;;5055544;28;20388;-86
2022/11/07 04:06:44;;;;;;;;;;;6.90;84.90;;;;;;5055216;28;19967;-86
2022/11/07 04:09:10;;;;;;;;;;;6.80;85.00;;;;;;5055714;28;19948;-86
2022/11/07 04:17:19;;;;;;;;;;;6.40;88.90;;;;;;5055380;28;20019;-86
2022/11/07 04:19:48;;;;;;;;;;;6.30;90.30;;;;;;5055348;28;19946;-86
2022/11/07 04:22:14;;;;;;;;;;;6.30;90.40;;;;;;5055220;28;20001;-86
2022/11/07 04:24:40;;;;;;;;;;;6.40;90.30;;;;;;5055587;28;19981;-86
2022/11/07 04:29:51;;;;;;;;;;;6.60;89.10;;;;;;5054777;28;19979;-86
2022/11/07 04:32:16;;;;;;;;;;;6.50;88.90;;;;;;5055060;28;19943;-86
2022/11/07 04:34:42;;;;;;;;;;;6.50;88.40;;;;;;5055139;28;19938;-86
2022/11/07 04:37:07;;;;;;;;;;;6.60;88.20;;;;;;5055003;28;20392;-86
2022/11/07 04:39:33;;;;;;;;;;;6.60;87.80;;;;;;5054972;28;19938;-86
2022/11/07 04:41:58;;;;;;;;;;;6.60;87.80;;;;;;5054881;28;19961;-86
2022/11/07 04:44:24;;;;;;;;;;;6.50;87.80;;;;;;5054917;28;19944;-86
2022/11/07 04:46:49;;;;;;;;;;;6.50;88.70;;;;;;5054860;28;19942;-86
2022/11/07 04:49:15;;;;;;;;;;;6.50;88.80;;;;;;5054805;28;19936;-86
2022/11/07 04:51:42;;;;;;;;;;;6.40;88.60;;;;;;5054613;28;19957;-85
2022/11/07 04:54:13;;;;;;;;;;;6.30;88.50;;;;;;5054699;28;20396;-86
2022/11/07 04:56:39;;;;;;;;;;;6.40;89.40;;;;;;5054632;28;20073;-86
2022/11/07 04:59:05;;;;;;;;;;;6.60;89.00;;;;;;5036691;28;20461;-86
2022/11/07 05:01:30;;;;;;;;;;;6.70;88.90;;;;;;5053995;28;19965;-86
2022/11/07 05:03:56;;;;;;;;;;;6.70;88.90;;;;;;5054329;28;19941;-86
2022/11/07 05:06:22;;;;;;;;;;;6.70;88.50;;;;;;5054381;28;19965;-86
2022/11/07 05:08:47;;;;;;;;;;;6.50;86.80;;;;;;5054312;28;19945;-86
2022/11/07 05:11:13;;;;;;;;;;;6.50;87.00;;;;;;5054405;28;20303;-86
2022/11/07 05:13:38;;;;;;;;;;;6.50;86.30;;;;;;5054356;28;20441;-86
2022/11/07 05:16:04;;;;;;;;;;;6.50;86.30;;;;;;5054323;28;20324;-86
2022/11/07 05:18:30;;;;;;;;;;;6.50;85.60;;;;;;5054270;28;20316;-86
2022/11/07 05:20:55;;;;;;;;;;;6.40;85.40;;;;;;5054057;28;19980;-85
2022/11/07 05:23:21;;;;;;;;;;;6.30;88.70;;;;;;5054182;28;19935;-86
2022/11/07 05:25:46;;;;;;;;;;;6.10;90.40;;;;;;5054033;28;19988;-86
2022/11/07 05:28:14;;;;;;;;;;;6.20;89.50;;;;;;5054060;28;19946;-86
2022/11/07 05:30:40;;;;;;;;;;;6.20;90.20;;;;;;5035898;28;19990;-86
2022/11/07 05:33:07;;;;;;;;;;;6.10;90.30;;;;;;5054007;28;20074;-86
2022/11/07 05:35:33;;;;;;;;;;;6.10;90.60;;;;;;5053858;28;19946;-86
2022/11/07 05:37:58;;;;;;;;;;;6.20;90.30;;;;;;5053755;28;19938;-86
2022/11/07 05:40:24;;;;;;;;;;;6.30;89.90;;;;;;5051874;28;19964;-86
2022/11/07 05:42:49;;;;;;;;;;;6.30;88.80;;;;;;5053709;28;19937;-85
2022/11/07 05:45:15;;;;;;;;;;;6.30;89.00;;;;;;5053757;28;19945;-86
2022/11/07 05:47:40;;;;;;;;;;;6.40;88.20;;;;;;5054018;28;19972;-86
2022/11/07 05:50:06;;;;;;;;;;;6.40;87.90;;;;;;5065317;28;20001;-86
2022/11/07 05:52:31;;;;;;;;;;;6.40;89.10;;;;;;5073372;28;19955;-86
2022/11/07 05:54:57;;;;;;;;;;;6.40;88.70;;;;;;5073380;28;19945;-86
2022/11/07 05:57:22;;;;;;;;;;;6.40;88.30;;;;;;5073435;28;19939;-86
2022/11/07 05:59:48;;;;;;;;;;;6.20;88.20;;;;;;5073374;28;19990;-86
2022/11/07 06:02:14;;;;;;;;;;;6.20;87.90;;;;;;5055406;28;20416;-86
2022/11/07 06:04:39;;;;;;;;;;;6.30;87.10;;;;;;5055433;28;20395;-86
2022/11/07 06:07:05;;;;;;;;;;;6.20;86.90;;;;;;5073151;28;19994;-86
2022/11/07 06:09:30;;;;;;;;;;;6.20;87.10;;;;;;5073327;28;19970;-86
2022/11/07 06:11:56;;;;;;;;;;;6.40;87.00;;;;;;5073305;28;19939;-86
2022/11/07 06:14:21;;;;;;;;;;;6.40;87.00;;;;;;5073273;28;20395;-86
2022/11/07 06:16:47;;;;;;;;;;;6.40;86.90;;;;;;5073306;28;20422;-86
2022/11/07 06:19:12;;;;;;;;;;;6.40;87.10;;;;;;5073060;28;20343;-86
2022/11/07 06:21:38;;;;;;;;;;;6.30;86.80;;;;;;5073087;28;19956;-86
2022/11/07 06:24:03;;;;;;;;;;;6.10;86.70;;;;;;5071541;28;19946;-86
2022/11/07 06:26:29;;;;;;;;;;;6.00;87.40;;;;;;5051200;28;20322;-86
2022/11/07 06:28:55;;;;;;;;;;;6.10;87.70;;;;;;5061122;22;19971;-86
2022/11/07 06:31:20;;;;;;;;;;;6.20;86.70;;;;;;5069758;28;19949;-86
2022/11/07 06:33:50;;;;;;;;;;;6.40;86.20;;;;;;5070495;28;19948;-86
2022/11/07 06:36:15;;;;;;;;;;;6.40;85.90;;;;;;5069471;28;20038;-86
2022/11/07 06:38:41;;;;;;;;;;;6.10;88.00;;;;;;5073030;28;20453;-86
2022/11/07 06:41:08;;;;;;;;;;;6.20;88.10;;;;;;5071173;28;19971;-86
2022/11/07 06:43:33;;;;;;;;;;;6.30;88.30;;;;;;5072007;28;20397;-86
2022/11/07 06:46:03;;;;;;;;;;;6.40;88.10;;;;;;5069940;28;19941;-86
2022/11/07 06:48:29;;;;;;;;;;;6.30;88.40;;;;;;5071535;28;20130;-86
2022/11/07 06:50:56;;;;;;;;;;;6.20;89.10;;;;;;5071628;28;20512;-86
2022/11/07 06:53:21;;;;;;;;;;;6.30;89.40;;;;;;5074323;28;20284;-86
2022/11/07 06:55:47;;;;;;;;;;;6.40;89.40;;;;;;5076158;28;19944;-87
2022/11/07 06:58:12;;;;;;;;;;;6.70;89.30;;;;;;5075166;28;19948;-86
2022/11/07 07:00:38;;;;;;;;;;;6.90;88.40;;;;;;5071811;28;19971;-86
2022/11/07 07:03:04;;;;;;;;;;;6.80;88.00;;;;;;5073805;28;19947;-86
2022/11/07 07:05:31;;;;;;;;;;;6.80;88.50;;;;;;5074267;28;19955;-86
2022/11/07 07:07:56;;;;;;;;;;;6.80;89.10;;;;;;5073530;28;19946;-86
2022/11/07 07:10:23;;;;;;;;;;;6.80;89.50;;;;;;5057734;28;20055;-86
2022/11/07 07:12:49;;;;;;;;;;;6.90;90.00;;;;;;5073493;28;19945;-86
2022/11/07 07:15:15;;;;;;;;;;;7.10;90.00;;;;;;5073013;28;19950;-86
2022/11/07 07:17:40;;;;;;;;;;;7.20;89.40;;;;;;5073795;28;19993;-86
2022/11/07 07:20:06;;;;;;;;;;;7.20;89.60;;;;;;5074378;28;19993;-86
2022/11/07 07:22:31;;;;;;;;;;;7.30;89.50;;;;;;5073333;28;20034;-86
2022/11/07 07:24:57;;;;;;;;;;;7.40;89.70;;;;;;5074775;28;20245;-87
2022/11/07 07:27:23;;;;;;;;;;;7.40;89.70;;;;;;5073354;28;19944;-87
2022/11/07 07:29:49;;;;;;;;;;;7.60;89.80;;;;;;5071774;28;19975;-86
2022/11/07 07:32:14;;;;;;;;;;;7.90;89.70;;;;;;5070159;28;19944;-86
2022/11/07 07:34:40;;;;;;;;;;;8.30;89.30;;;;;;5072585;28;20299;-86
2022/11/07 07:37:06;;;;;;;;;;;8.60;88.60;;;;;;5072930;28;20026;-87
2022/11/07 07:39:31;;;;;;;;;;;8.80;88.40;;;;;;5070926;28;20029;-87
2022/11/07 07:41:57;;;;;;;;;;;9.00;87.70;;;;;;5072639;28;19966;-87
2022/11/07 07:44:22;;;;;;;;;;;9.20;87.00;;;;;;5072578;28;19946;-87
2022/11/07 07:46:48;;;;;;;;;;;9.00;86.80;;;;;;5072635;28;19944;-87
2022/11/07 07:49:14;;;;;;;;;;;8.80;87.60;;;;;;5070402;28;19952;-87
2022/11/07 07:51:39;;;;;;;;;;;8.70;87.90;;;;;;5073579;28;19959;-87
2022/11/07 07:54:05;;;;;;;;;;;8.90;87.70;;;;;;5072644;28;19956;-87
2022/11/07 07:56:30;;;;;;;;;;;9.00;87.20;;;;;;5070626;28;19944;-87
2022/11/07 07:58:56;;;;;;;;;;;9.10;86.90;;;;;;5072212;28;19946;-87
2022/11/07 08:01:21;;;;;;;;;;;9.30;87.00;;;;;;5070238;28;20008;-88
2022/11/07 08:03:48;;;;;;;;;;;9.40;87.20;;;;;;5068678;28;20399;-88
2022/11/07 08:06:14;;;;;;;;;;;9.50;86.90;;;;;;5072459;28;19992;-87
2022/11/07 08:08:39;;;;;;;;;;;9.60;86.80;;;;;;5072526;28;19948;-87
2022/11/07 08:11:06;;;;;;;;;;;9.60;86.70;;;;;;5072653;28;19946;-87
2022/11/07 08:13:32;;;;;;;;;;;9.70;86.70;;;;;;5071953;28;19951;-87
2022/11/07 08:15:57;;;;;;;;;;;9.80;86.60;;;;;;5073684;28;19951;-87
2022/11/07 08:18:23;;;;;;;;;;;10.40;84.90;;;;;;5072950;28;19952;-87
2022/11/07 08:20:49;;;;;;;;;;;10.70;83.30;;;;;;5073595;28;20016;-87
2022/11/07 08:23:15;;;;;;;;;;;11.00;81.60;;;;;;5075273;28;19940;-87
2022/11/07 08:25:41;;;;;;;;;;;11.30;80.70;;;;;;5072740;28;19994;-86
2022/11/07 08:28:07;;;;;;;;;;;11.10;79.80;;;;;;5074676;28;19944;-87
2022/11/07 08:30:36;;;;;;;;;;;11.10;80.80;;;;;;5072528;28;20005;-87
2022/11/07 08:33:02;;;;;;;;;;;11.10;80.00;;;;;;5072772;28;20041;-87
2022/11/07 08:35:28;;;;;;;;;;;11.30;78.10;;;;;;5070679;28;19984;-87
2022/11/07 08:37:53;;;;;;;;;;;11.40;77.30;;;;;;5071721;28;19949;-87
2022/11/07 08:40:19;;;;;;;;;;;11.50;75.90;;;;;;5073181;28;19941;-87
2022/11/07 08:42:45;;;;;;;;;;;11.60;75.60;;;;;;5055077;28;20424;-86
2022/11/07 08:45:10;;;;;;;;;;;11.70;75.70;;;;;;5071482;28;19946;-87
2022/11/07 08:47:36;;;;;;;;;;;11.90;75.20;;;;;;5060258;28;19972;-87
2022/11/07 08:50:02;;;;;;;;;;;12.10;73.70;;;;;;5071003;28;20019;-87
2022/11/07 08:52:28;;;;;;;;;;;12.10;73.70;;;;;;5068882;28;19958;-87
2022/11/07 08:54:53;;;;;;;;;;;12.30;73.30;;;;;;5072830;28;20026;-87
2022/11/07 08:57:19;;;;;;;;;;;12.40;72.80;;;;;;5073386;28;19948;-87
2022/11/07 08:59:44;;;;;;;;;;;12.50;72.80;;;;;;5072682;28;19951;-87
2022/11/07 09:02:11;;;;;;;;;;;12.70;72.70;;;;;;5072649;28;19970;-87
2022/11/07 09:04:36;;;;;;;;;;;12.80;72.00;;;;;;5073700;28;20402;-87
2022/11/07 09:07:02;;;;;;;;;;;12.70;71.20;;;;;;5069019;28;19987;-87
2022/11/07 09:09:27;;;;;;;;;;;12.80;70.80;;;;;;5071474;28;19948;-87
2022/11/07 09:11:53;;;;;;;;;;;12.90;69.90;;;;;;5065807;28;20022;-87
2022/11/07 09:14:18;;;;;;;;;;;12.80;69.70;;;;;;5067948;28;19953;-86
2022/11/07 09:16:44;;;;;;;;;;;12.80;70.00;;;;;;5072583;28;20315;-87
2022/11/07 09:19:09;;;;;;;;;;;12.80;69.80;;;;;;5070473;28;20317;-87
2022/11/07 09:21:35;;;;;;;;;;;12.90;69.60;;;;;;5071529;28;20322;-87
2022/11/07 09:24:01;;;;;;;;;;;12.90;68.90;;;;;;5070501;28;19960;-87
2022/11/07 09:26:26;;;;;;;;;;;13.20;68.20;;;;;;5067290;28;19950;-87
2022/11/07 09:28:52;;;;;;;;;;;13.10;69.00;;;;;;5070157;28;19942;-87
2022/11/07 09:31:18;;;;;;;;;;;13.30;68.80;;;;;;5066037;28;19962;-87
2022/11/07 09:33:43;;;;;;;;;;;13.40;68.30;;;;;;5069984;28;20322;-87
2022/11/07 09:36:10;;;;;;;;;;;13.60;66.20;;;;;;5072107;28;20390;-87
2022/11/07 09:38:36;;;;;;;;;;;13.90;65.00;;;;;;5071234;28;20402;-87
2022/11/07 09:41:04;;;;;;;;;;;14.10;62.90;;;;;;5069199;28;20081;-87
2022/11/07 09:43:39;;;;;;;;;;;14.00;64.20;;;;;;5052516;28;20314;-87
2022/11/07 09:46:10;;;;;;;;;;;14.20;62.30;;;;;;5068828;28;19944;-87
2022/11/07 09:48:40;;;;;;;;;;;14.40;60.30;;;;;;5070269;28;20424;-87
2022/11/07 09:51:09;;;;;;;;;;;14.50;60.50;;;;;;5070233;28;20134;-87
2022/11/07 09:53:41;;;;;;;;;;;14.50;61.10;;;;;;5069102;28;19948;-86
2022/11/07 09:56:10;;;;;;;;;;;14.40;61.00;;;;;;5071181;28;19949;-87
2022/11/07 09:58:36;;;;;;;;;;;14.30;60.90;;;;;;5069069;28;19949;-86
2022/11/07 10:01:04;;;;;;;;;;;14.20;60.20;;;;;;5067344;28;20581;-86
2022/11/07 10:03:31;;;;;;;;;;;14.30;61.70;;;;;;5069975;28;20042;-86
2022/11/07 10:06:06;;;;;;;;;;;14.30;62.50;;;;;;5071162;28;19953;-86
2022/11/07 10:08:46;;;;;;;;;;;14.40;63.10;;;;;;5070401;28;20030;-87
2022/11/07 10:11:33;;;;;;;;;;;14.60;62.90;;;;;;5069900;28;20006;-87
2022/11/07 10:14:15;;;;;;;;;;;14.80;62.40;;;;;;5069239;28;19942;-87
2022/11/07 10:16:59;;;;;;;;;;;15.00;63.10;;;;;;5067889;28;20412;-87
2022/11/07 10:19:24;;;;;;;;;;;15.10;59.40;;;;;;5071207;28;19949;-87
2022/11/07 10:22:11;;;;;;;;;;;15.40;56.50;;;;;;5070131;28;19964;-87
2022/11/07 10:24:36;;;;;;;;;;;15.50;55.60;;;;;;5070351;28;19983;-87
2022/11/07 10:27:06;;;;;;;;;;;15.60;55.60;;;;;;5070611;28;20007;-87
2022/11/07 10:29:52;;;;;;;;;;;15.60;56.60;;;;;;5069752;28;20065;-87
2022/11/07 10:32:18;;;;;;;;;;;15.50;56.20;;;;;;5070738;28;19950;-87
2022/11/07 10:34:47;;;;;;;;;;;15.30;56.10;;;;;;5053589;28;20102;-87
2022/11/07 10:37:13;;;;;;;;;;;15.30;56.10;;;;;;5070591;28;20420;-87
2022/11/07 10:39:38;;;;;;;;;;;15.40;54.80;;;;;;5069775;28;19949;-86
2022/11/07 10:42:08;;;;;;;;;;;15.70;54.20;;;;;;5068048;28;19943;-87
2022/11/07 10:44:34;;;;;;;;;;;15.90;53.90;;;;;;5070872;28;19942;-87
2022/11/07 10:47:02;;;;;;;;;;;15.90;53.20;;;;;;5066613;28;19944;-86
2022/11/07 10:49:28;;;;;;;;;;;15.80;52.80;;;;;;5068104;28;20293;-86
2022/11/07 10:52:04;;;;;;;;;;;15.70;53.20;;;;;;5069350;28;19959;-87
2022/11/07 10:54:30;;;;;;;;;;;15.70;53.60;;;;;;5065311;28;19954;-87
2022/11/07 10:57:01;;;;;;;;;;;15.90;53.50;;;;;;5071493;28;19967;-87
2022/11/07 10:59:28;;;;;;;;;;;16.10;52.60;;;;;;5047146;28;19944;-87
2022/11/07 11:01:54;;;;;;;;;;;16.30;51.50;;;;;;5065873;28;19957;-87
2022/11/07 11:04:28;;;;;;;;;;;16.30;51.90;;;;;;5064366;28;20313;-87
2022/11/07 11:07:02;;;;;;;;;;;16.30;51.60;;;;;;5071455;28;20331;-86
2022/11/07 11:09:31;;;;;;;;;;;16.10;52.10;;;;;;5063589;28;19950;-87
2022/11/07 11:11:57;;;;;;;;;;;16.10;51.90;;;;;;5071606;28;19983;-86
2022/11/07 11:14:22;;;;;;;;;;;16.20;51.90;;;;;;5070772;28;20381;-87
2022/11/07 11:16:51;;;;;;;;;;;16.30;51.60;;;;;;5072637;28;19938;-87
2022/11/07 11:19:22;;;;;;;;;;;16.50;52.40;;;;;;5071876;28;19998;-87
2022/11/07 11:21:48;;;;;;;;;;;16.60;51.00;;;;;;5071702;28;20023;-87
2022/11/07 11:24:30;;;;;;;;;;;17.00;50.40;;;;;;5072506;28;20398;-87
2022/11/07 11:26:58;;;;;;;;;;;17.20;51.20;;;;;;5072460;28;19941;-87
2022/11/07 11:29:27;;;;;;;;;;;17.70;50.20;;;;;;5071001;28;19975;-87
2022/11/07 11:31:54;;;;;;;;;;;18.10;49.30;;;;;;5072696;28;20028;-87
2022/11/07 11:34:31;;;;;;;;;;;18.40;48.30;;;;;;5072495;28;20003;-87
2022/11/07 11:37:07;;;;;;;;;;;18.80;47.60;;;;;;5072496;28;19943;-87
2022/11/07 11:39:48;;;;;;;;;;;19.30;46.10;;;;;;5073567;28;19993;-87
2022/11/07 11:42:37;;;;;;;;;;;19.90;44.50;;;;;;5076072;28;19972;-87
2022/11/07 11:45:12;;;;;;;;;;;20.70;43.10;;;;;;5061735;28;19941;-87
2022/11/07 11:47:39;;;;;;;;;;;21.40;41.90;;;;;;5075992;28;20055;-87
2022/11/07 11:50:08;;;;;;;;;;;21.60;40.00;;;;;;5075261;28;19952;-87
2022/11/07 11:52:34;;;;;;;;;;;21.30;39.50;;;;;;5075714;28;19972;-87
2022/11/07 11:55:00;;;;;;;;;;;21.40;40.10;;;;;;5075860;28;19991;-87
2022/11/07 11:57:36;;;;;;;;;;;21.50;39.80;;;;;;5075712;28;20032;-87
2022/11/07 12:00:17;;;;;;;;;;;21.70;39.30;;;;;;5073760;28;19946;-87
2022/11/07 12:02:58;;;;;;;;;;;22.80;38.60;;;;;;5075796;28;19947;-87
2022/11/07 12:05:42;;;;;;;;;;;23.70;36.20;;;;;;5074871;28;19962;-87
2022/11/07 12:08:26;;;;;;;;;;;24.50;35.20;;;;;;5075888;28;19974;-87
2022/11/07 12:10:58;;;;;;;;;;;24.60;34.60;;;;;;5075913;28;20087;-87
2022/11/07 12:13:30;;;;;;;;;;;24.10;33.80;;;;;;5075537;28;19961;-87
2022/11/07 12:16:15;;;;;;;;;;;24.50;34.30;;;;;;5073656;28;19946;-87
2022/11/07 12:18:53;;;;;;;;;;;25.20;33.90;;;;;;5073108;28;19957;-87
2022/11/07 12:21:24;;;;;;;;;;;26.30;31.00;;;;;;5073792;28;19959;-88
2022/11/07 12:23:54;;;;;;;;;;;26.90;30.10;;;;;;5074571;28;20420;-87
2022/11/07 12:26:31;;;;;;;;;;;27.30;29.30;;;;;;5075312;28;19947;-88
2022/11/07 12:28:56;;;;;;;;;;;27.60;28.90;;;;;;5074744;28;20343;-88
2022/11/07 12:31:45;;;;;;;;;;;28.00;28.00;;;;;;5073128;28;20443;-87
2022/11/07 12:34:18;;;;;;;;;;;26.30;30.40;;;;;;5062082;28;20262;-87
2022/11/07 12:36:56;;;;;;;;;;;25.60;30.80;;;;;;5070994;28;20565;-87
2022/11/07 12:39:35;;;;;;;;;;;25.10;31.50;;;;;;5072253;28;19967;-87
2022/11/07 12:42:24;;;;;;;;;;;24.40;32.50;;;;;;5074142;28;20006;-87
2022/11/07 12:44:54;;;;;;;;;;;25.10;31.90;;;;;;5051647;28;19951;-88
2022/11/07 12:47:20;;;;;;;;;;;26.10;30.70;;;;;;5073397;28;20045;-87
2022/11/07 12:49:51;;;;;;;;;;;26.70;30.00;;;;;;5072801;28;20063;-87
2022/11/07 12:52:21;;;;;;;;;;;27.20;29.10;;;;;;5072672;28;19960;-87
2022/11/07 12:55:11;;;;;;;;;;;26.70;29.10;;;;;;5073457;28;19958;-87
2022/11/07 12:57:37;;;;;;;;;;;26.70;30.40;;;;;;5072244;28;19950;-87
2022/11/07 13:00:11;;;;;;;;;;;27.30;28.90;;;;;;5072600;28;19941;-87
2022/11/07 13:02:40;;;;;;;;;;;27.40;28.80;;;;;;5071622;28;19952;-87
2022/11/07 13:05:14;;;;;;;;;;;27.50;29.00;;;;;;5072847;28;19941;-88
2022/11/07 13:07:45;;;;;;;;;;;27.30;28.70;;;;;;5071043;28;20038;-87
2022/11/07 13:10:27;;;;;;;;;;;27.10;28.70;;;;;;5070492;28;19940;-87
2022/11/07 13:12:58;;;;;;;;;;;27.10;28.30;;;;;;5071347;28;19951;-87
2022/11/07 13:15:23;;;;;;;;;;;27.60;27.50;;;;;;5070143;28;22074;-87
2022/11/07 13:17:49;;;;;;;;;;;26.30;29.10;;;;;;5070412;28;19942;-87
2022/11/07 13:20:20;;;;;;;;;;;25.80;31.00;;;;;;5072724;28;19962;-87
2022/11/07 13:22:47;;;;;;;;;;;25.90;29.80;;;;;;5072138;28;19959;-87
2022/11/07 13:25:15;;;;;;;;;;;25.30;31.10;;;;;;5069015;28;20009;-87
2022/11/07 13:27:42;;;;;;;;;;;26.40;29.30;;;;;;5070816;28;19952;-87
2022/11/07 13:30:10;;;;;;;;;;;27.20;28.60;;;;;;5072960;28;19998;-87
2022/11/07 13:32:49;;;;;;;;;;;27.70;27.80;;;;;;5068767;28;20095;-87
2022/11/07 13:35:26;;;;;;;;;;;28.00;27.70;;;;;;5072202;28;19986;-87
2022/11/07 13:38:03;;;;;;;;;;;28.00;27.70;;;;;;5073143;28;20528;-87
2022/11/07 13:40:31;;;;;;;;;;;27.90;28.10;;;;;;5067116;28;19947;-87
2022/11/07 13:43:09;;;;;;;;;;;28.00;27.70;;;;;;5073692;28;19950;-87
2022/11/07 13:45:44;;;;;;;;;;;28.10;28.00;;;;;;5072185;28;19979;-87
2022/11/07 13:48:14;;;;;;;;;;;28.20;28.30;;;;;;5069398;28;20299;-87
2022/11/07 13:50:42;;;;;;;;;;;28.10;27.80;;;;;;5069923;28;19945;-87
2022/11/07 13:53:19;;;;;;;;;;;28.30;27.30;;;;;;5071642;28;19952;-87
2022/11/07 13:56:11;;;;;;;;;;;28.20;27.30;;;;;;5071104;28;19940;-87
2022/11/07 13:58:38;;;;;;;;;;;28.00;27.40;;;;;;5047537;28;19995;-87
2022/11/07 14:01:09;;;;;;;;;;;27.60;28.50;;;;;;5067601;28;19965;-88
2022/11/07 14:03:34;;;;;;;;;;;27.20;29.10;;;;;;5055060;28;19941;-88
2022/11/07 14:06:00;;;;;;;;;;;27.50;28.30;;;;;;5047810;28;19971;-88
2022/11/07 14:08:31;;;;;;;;;;;27.50;28.10;;;;;;5070513;28;20002;-88
2022/11/07 14:10:57;;;;;;;;;;;27.40;27.90;;;;;;5068090;28;20327;-88
2022/11/07 14:13:30;;;;;;;;;;;27.30;27.80;;;;;;5067857;28;19946;-88
2022/11/07 14:15:58;;;;;;;;;;;26.70;28.70;;;;;;5067216;28;19949;-87
2022/11/07 14:18:25;;;;;;;;;;;26.10;29.30;;;;;;5071354;28;19999;-87
2022/11/07 14:20:53;;;;;;;;;;;25.00;30.90;;;;;;5068260;28;19957;-87
2022/11/07 14:23:20;;;;;;;;;;;24.80;32.30;;;;;;5068345;28;19949;-87
2022/11/07 14:25:52;;;;;;;;;;;24.20;32.90;;;;;;5065791;28;19951;-87
2022/11/07 14:28:18;;;;;;;;;;;24.50;32.30;;;;;;5067021;28;19948;-87
2022/11/07 14:30:47;;;;;;;;;;;24.60;31.90;;;;;;5109958;22;19996;-87
2022/11/07 14:33:18;;;;;;;;;;;24.30;32.00;;;;;;5106025;28;19960;-88
2022/11/07 14:35:45;;;;;;;;;;;23.40;34.70;;;;;;5110298;28;19946;-87
2022/11/07 14:38:15;;;;;;;;;;;22.40;35.60;;;;;;5111182;28;19951;-86
2022/11/07 14:40:41;;;;;;;;;;;21.70;36.60;;;;;;5111589;28;20399;-86